createdAt,value
2018-11-14T00:01:38.996Z,7.70
2018-11-14T00:04:07.502Z,7.70
2018-11-14T00:06:35.750Z,7.70
2018-11-14T00:09:05.779Z,7.80
2018-11-14T00:11:34.041Z,7.80
2018-11-14T00:14:02.275Z,7.80
2018-11-14T00:16:30.762Z,7.80
2018-11-14T00:18:59.040Z,7.90
2018-11-14T00:21:27.276Z,7.90
2018-11-14T00:23:55.551Z,7.90
2018-11-14T00:26:23.978Z,7.90
2018-11-14T00:28:52.349Z,7.90
2018-11-14T00:31:20.647Z,7.80
2018-11-14T00:33:48.940Z,7.80
2018-11-14T00:36:17.192Z,7.80
2018-11-14T00:38:45.436Z,7.70
2018-11-14T00:41:13.690Z,7.60
2018-11-14T00:43:42.016Z,7.50
2018-11-14T00:46:10.295Z,7.40
2018-11-14T00:48:38.540Z,7.40
2018-11-14T00:51:06.854Z,7.40
2018-11-14T00:53:35.132Z,7.40
2018-11-14T00:56:03.379Z,7.50
2018-11-14T00:58:31.641Z,7.50
2018-11-14T01:00:59.917Z,7.40
2018-11-14T01:03:28.171Z,7.40
2018-11-14T01:05:56.451Z,7.50
2018-11-14T01:08:24.695Z,7.40
2018-11-14T01:10:52.949Z,7.40
2018-11-14T01:13:21.718Z,7.50
2018-11-14T01:15:50.177Z,7.50
2018-11-14T01:18:18.485Z,7.50
2018-11-14T01:20:46.785Z,7.60
2018-11-14T01:23:15.097Z,7.60
2018-11-14T01:25:43.369Z,7.60
2018-11-14T01:28:11.642Z,7.60
2018-11-14T01:30:39.947Z,7.60
2018-11-14T01:33:08.273Z,7.60
2018-11-14T01:35:36.605Z,7.60
2018-11-14T01:38:04.857Z,7.60
2018-11-14T01:40:33.138Z,7.60
2018-11-14T01:43:01.763Z,7.60
2018-11-14T01:45:30.056Z,7.60
2018-11-14T01:47:58.355Z,7.60
2018-11-14T01:50:26.634Z,7.50
2018-11-14T01:52:54.907Z,7.50
2018-11-14T01:55:23.168Z,7.50
2018-11-14T01:57:51.608Z,7.50
2018-11-14T02:00:22.065Z,7.50
2018-11-14T02:02:52.701Z,7.50
2018-11-14T02:05:20.973Z,7.50
2018-11-14T02:07:49.294Z,7.50
2018-11-14T02:10:18.958Z,7.50
2018-11-14T02:12:47.547Z,7.40
2018-11-14T02:15:19.606Z,7.30
2018-11-14T02:17:47.914Z,7.30
2018-11-14T02:20:16.159Z,7.30
2018-11-14T02:22:45.014Z,7.20
2018-11-14T02:25:13.842Z,7.20
2018-11-14T02:27:42.268Z,7.20
2018-11-14T02:30:12.292Z,7.20
2018-11-14T02:32:40.548Z,7.30
2018-11-14T02:35:09.212Z,7.30
2018-11-14T02:37:37.849Z,7.30
2018-11-14T02:40:08.261Z,7.30
2018-11-14T02:42:36.561Z,7.30
2018-11-14T02:45:04.828Z,7.30
2018-11-14T02:47:33.428Z,7.30
2018-11-14T02:50:02.041Z,7.30
2018-11-14T02:52:30.385Z,7.20
2018-11-14T02:54:59.548Z,7.20
2018-11-14T02:57:28.013Z,7.20
2018-11-14T02:59:56.331Z,7.10
2018-11-14T03:02:24.575Z,7.10
2018-11-14T03:04:52.899Z,6.90
2018-11-14T03:07:21.173Z,6.90
2018-11-14T03:09:49.419Z,6.80
2018-11-14T03:12:17.749Z,6.60
2018-11-14T03:14:45.980Z,6.60
2018-11-14T03:17:14.633Z,6.50
2018-11-14T03:19:42.880Z,6.50
2018-11-14T03:22:11.165Z,6.40
2018-11-14T03:24:39.440Z,6.40
2018-11-14T03:27:07.688Z,6.30
2018-11-14T03:29:35.934Z,6.30
2018-11-14T03:32:04.217Z,6.20
2018-11-14T03:34:32.488Z,6.20
2018-11-14T03:37:00.764Z,6.20
2018-11-14T03:39:29.004Z,6.20
2018-11-14T03:41:57.342Z,6.10
2018-11-14T03:44:25.587Z,6.10
2018-11-14T03:46:53.858Z,6.10
2018-11-14T03:49:22.120Z,6.10
2018-11-14T03:51:50.400Z,6.10
2018-11-14T03:54:18.600Z,6.10
2018-11-14T03:56:46.806Z,6.00
2018-11-14T03:59:15.044Z,6.00
2018-11-14T04:01:43.300Z,5.90
2018-11-14T04:04:11.556Z,5.80
2018-11-14T04:06:39.808Z,5.70
2018-11-14T04:09:09.597Z,5.60
2018-11-14T04:11:37.775Z,5.50
2018-11-14T04:14:06.028Z,5.50
2018-11-14T04:16:34.304Z,5.50
2018-11-14T04:19:02.937Z,5.50
2018-11-14T04:21:31.244Z,5.50
2018-11-14T04:23:59.458Z,5.40
2018-11-14T04:26:27.677Z,5.40
2018-11-14T04:28:55.881Z,5.40
2018-11-14T04:31:24.210Z,5.30
2018-11-14T04:33:52.473Z,5.30
2018-11-14T04:36:20.711Z,5.30
2018-11-14T04:38:48.920Z,5.30
2018-11-14T04:41:17.136Z,5.30
2018-11-14T04:43:45.445Z,5.30
2018-11-14T04:46:13.676Z,5.30
2018-11-14T04:48:41.903Z,5.20
2018-11-14T04:51:10.156Z,5.10
2018-11-14T04:53:38.389Z,5.10
2018-11-14T04:56:06.864Z,5.10
2018-11-14T04:58:35.103Z,5.00
2018-11-14T05:01:03.311Z,5.00
2018-11-14T05:03:31.537Z,4.90
2018-11-14T05:06:00.184Z,4.80
2018-11-14T05:08:28.449Z,4.70
2018-11-14T05:10:57.080Z,4.70
2018-11-14T05:13:25.309Z,4.70
2018-11-14T05:15:53.557Z,4.70
2018-11-14T05:18:21.779Z,4.70
2018-11-14T05:20:49.992Z,4.80
2018-11-14T05:23:18.472Z,4.80
2018-11-14T05:25:46.694Z,4.90
2018-11-14T05:28:14.913Z,4.80
2018-11-14T05:30:43.135Z,4.80
2018-11-14T05:33:11.400Z,4.80
2018-11-14T05:35:39.611Z,4.80
2018-11-14T05:38:07.824Z,4.80
2018-11-14T05:40:36.755Z,4.80
2018-11-14T05:43:05.135Z,4.80
2018-11-14T05:45:33.474Z,4.80
2018-11-14T05:48:01.658Z,4.90
2018-11-14T05:50:29.907Z,4.80
2018-11-14T05:52:58.140Z,4.80
2018-11-14T05:55:26.380Z,4.80
2018-11-14T05:57:54.644Z,4.80
2018-11-14T06:00:28.875Z,4.80
2018-11-14T06:02:57.875Z,4.80
2018-11-14T06:05:26.202Z,4.80
2018-11-14T06:07:54.492Z,4.80
2018-11-14T06:10:22.740Z,4.80
2018-11-14T06:12:51.031Z,4.80
2018-11-14T06:15:20.140Z,4.80
2018-11-14T06:17:48.598Z,4.90
2018-11-14T06:20:18.123Z,4.90
2018-11-14T06:22:47.338Z,4.80
2018-11-14T06:25:39.024Z,4.80
2018-11-14T06:28:08.884Z,4.90
2018-11-14T06:30:37.567Z,4.80
2018-11-14T06:33:06.892Z,4.80
2018-11-14T06:35:35.200Z,4.80
2018-11-14T06:38:03.508Z,4.80
2018-11-14T06:40:31.747Z,4.90
2018-11-14T06:43:00.040Z,4.90
2018-11-14T06:45:29.719Z,4.90
2018-11-14T06:47:59.193Z,5.00
2018-11-14T06:50:27.451Z,5.00
2018-11-14T06:52:57.219Z,5.10
2018-11-14T06:55:27.624Z,5.10
2018-11-14T06:57:55.873Z,5.10
2018-11-14T07:00:25.414Z,5.10
2018-11-14T07:02:54.104Z,5.20
2018-11-14T07:05:22.378Z,5.30
2018-11-14T07:07:50.601Z,5.30
2018-11-14T07:10:20.798Z,5.30
2018-11-14T07:12:49.017Z,5.30
2018-11-14T07:15:20.432Z,5.40
2018-11-14T07:17:49.537Z,5.50
2018-11-14T07:20:22.360Z,5.50
2018-11-14T07:22:50.652Z,5.50
2018-11-14T07:25:18.874Z,5.60
2018-11-14T07:27:47.075Z,5.70
2018-11-14T07:30:18.451Z,5.80
2018-11-14T07:32:48.075Z,5.80
2018-11-14T07:35:16.957Z,5.90
2018-11-14T07:37:47.878Z,6.00
2018-11-14T07:40:16.231Z,6.10
2018-11-14T07:42:44.528Z,6.20
2018-11-14T07:45:14.669Z,6.30
2018-11-14T07:47:43.038Z,6.30
2018-11-14T07:50:14.138Z,6.40
2018-11-14T07:52:43.066Z,6.60
2018-11-14T07:55:12.035Z,6.70
2018-11-14T07:57:40.381Z,6.80
2018-11-14T08:00:11.717Z,6.90
2018-11-14T08:02:40.177Z,7.00
2018-11-14T08:05:08.504Z,7.10
2018-11-14T08:07:36.794Z,7.20
2018-11-14T08:10:06.564Z,7.30
2018-11-14T08:12:34.799Z,7.40
2018-11-14T08:15:03.023Z,7.40
2018-11-14T08:17:31.271Z,7.50
2018-11-14T08:19:59.679Z,7.50
2018-11-14T08:22:27.903Z,7.60
2018-11-14T08:24:56.183Z,7.70
2018-11-14T08:27:24.468Z,7.80
2018-11-14T08:29:52.906Z,7.80
2018-11-14T08:32:21.138Z,7.90
2018-11-14T08:34:49.425Z,8.00
2018-11-14T08:37:17.647Z,8.20
2018-11-14T08:39:45.880Z,8.20
2018-11-14T08:42:14.139Z,8.30
2018-11-14T08:44:42.348Z,8.40
2018-11-14T08:47:10.600Z,8.50
2018-11-14T08:49:38.865Z,8.60
2018-11-14T08:52:07.180Z,8.70
2018-11-14T08:54:35.456Z,8.80
2018-11-14T08:57:03.852Z,8.90
2018-11-14T08:59:32.073Z,9.00
2018-11-14T09:02:00.332Z,9.10
2018-11-14T09:04:28.552Z,9.20
2018-11-14T09:06:56.819Z,9.30
2018-11-14T09:09:25.047Z,9.40
2018-11-14T09:11:53.312Z,9.50
2018-11-14T09:14:21.606Z,9.60
2018-11-14T09:16:49.844Z,9.70
2018-11-14T09:19:18.143Z,9.80
2018-11-14T09:21:46.405Z,9.80
2018-11-14T09:24:14.685Z,9.90
2018-11-14T09:26:42.973Z,10.00
2018-11-14T09:29:11.220Z,10.10
2018-11-14T09:31:39.531Z,10.20
2018-11-14T09:34:07.897Z,10.20
2018-11-14T09:36:36.210Z,10.30
2018-11-14T09:39:06.535Z,10.50
2018-11-14T09:41:34.870Z,10.60
2018-11-14T09:44:03.114Z,10.60
2018-11-14T09:46:31.409Z,10.70
2018-11-14T09:48:59.704Z,10.70
2018-11-14T09:51:27.976Z,10.70
2018-11-14T09:53:56.285Z,10.80
2018-11-14T09:56:24.628Z,10.90
2018-11-14T09:58:52.860Z,10.80
2018-11-14T10:01:21.717Z,10.80
2018-11-14T10:03:49.975Z,10.80
2018-11-14T10:06:18.272Z,10.80
2018-11-14T10:08:46.594Z,10.90
2018-11-14T10:11:14.813Z,11.00
2018-11-14T10:13:43.139Z,11.10
2018-11-14T10:16:11.440Z,11.10
2018-11-14T10:18:39.741Z,11.20
2018-11-14T10:21:08.037Z,11.30
2018-11-14T10:23:36.305Z,11.40
2018-11-14T10:26:04.640Z,11.50
2018-11-14T10:28:32.896Z,11.60
2018-11-14T10:31:01.159Z,11.70
2018-11-14T10:33:29.470Z,11.70
2018-11-14T10:35:57.729Z,11.80
2018-11-14T10:38:26.001Z,11.80
2018-11-14T10:40:54.240Z,11.80
2018-11-14T10:43:22.932Z,11.90
2018-11-14T10:45:51.188Z,12.00
2018-11-14T10:48:19.462Z,12.20
2018-11-14T10:50:47.776Z,12.20
2018-11-14T10:53:16.014Z,12.20
2018-11-14T10:55:44.275Z,12.20
2018-11-14T10:58:12.603Z,12.40
2018-11-14T11:00:52.706Z,12.60
2018-11-14T11:05:33.934Z,12.70
2018-11-14T11:08:07.471Z,12.80
2018-11-14T11:10:41.387Z,12.90
2018-11-14T11:13:14.825Z,12.90
2018-11-14T11:15:48.569Z,12.90
2018-11-14T11:18:17.849Z,12.70
2018-11-14T11:20:46.067Z,12.70
2018-11-14T11:23:14.329Z,12.90
2018-11-14T11:25:42.572Z,12.80
2018-11-14T11:28:10.864Z,12.80
2018-11-14T11:30:39.403Z,12.60
2018-11-14T11:33:07.736Z,12.40
2018-11-14T11:35:36.091Z,12.30
2018-11-14T11:38:04.440Z,12.10
2018-11-14T11:40:32.880Z,12.00
2018-11-14T11:43:01.796Z,11.90
2018-11-14T11:45:29.995Z,11.80
2018-11-14T11:47:58.286Z,11.70
2018-11-14T11:50:26.507Z,11.60
2018-11-14T11:52:55.924Z,11.60
2018-11-14T11:55:24.165Z,11.60
2018-11-14T11:57:52.375Z,11.70
2018-11-14T12:00:20.729Z,11.70
2018-11-14T12:02:48.860Z,11.70
2018-11-14T12:05:17.089Z,11.70
2018-11-14T12:07:45.601Z,11.80
2018-11-14T12:10:14.919Z,11.80
2018-11-14T12:12:44.024Z,11.90
2018-11-14T12:15:13.073Z,12.00
2018-11-14T12:17:42.002Z,12.00
2018-11-14T12:20:11.881Z,12.00
2018-11-14T12:22:40.912Z,12.10
2018-11-14T12:25:10.984Z,12.20
2018-11-14T12:27:39.276Z,12.20
2018-11-14T12:30:11.387Z,12.20
2018-11-14T12:32:39.859Z,12.20
2018-11-14T12:35:09.201Z,12.30
2018-11-14T12:37:37.428Z,12.20
2018-11-14T12:40:06.731Z,12.20
2018-11-14T12:42:35.045Z,12.20
2018-11-14T12:45:03.341Z,12.20
2018-11-14T12:47:31.595Z,12.20
2018-11-14T12:49:59.884Z,12.20
2018-11-14T12:52:28.365Z,12.20
2018-11-14T12:54:56.628Z,12.30
2018-11-14T12:57:24.955Z,12.50
2018-11-14T12:59:53.180Z,12.70
2018-11-14T13:02:21.409Z,12.90
2018-11-14T13:04:49.636Z,13.10
2018-11-14T13:07:17.863Z,13.30
2018-11-14T13:09:46.121Z,13.60
2018-11-14T13:12:14.379Z,13.70
2018-11-14T13:14:42.625Z,13.70
2018-11-14T13:17:10.900Z,13.70
2018-11-14T13:19:39.127Z,13.50
2018-11-14T13:22:07.408Z,13.30
2018-11-14T13:24:35.648Z,13.20
2018-11-14T13:27:03.914Z,13.00
2018-11-14T13:29:32.181Z,12.80
2018-11-14T13:32:00.392Z,12.60
2018-11-14T13:34:28.632Z,12.50
2018-11-14T13:36:56.983Z,12.30
2018-11-14T13:39:25.206Z,12.20
2018-11-14T13:41:53.466Z,12.30
2018-11-14T13:44:21.759Z,12.30
2018-11-14T13:46:50.061Z,12.40
2018-11-14T13:49:18.490Z,12.50
2018-11-14T13:51:46.570Z,12.50
2018-11-14T13:54:16.732Z,12.50
2018-11-14T13:56:45.021Z,12.50
2018-11-14T13:59:13.241Z,12.50
2018-11-14T14:01:41.471Z,12.50
2018-11-14T14:04:09.716Z,12.50
2018-11-14T14:06:37.947Z,12.50
2018-11-14T14:09:08.749Z,12.60
2018-11-14T14:11:36.960Z,12.50
2018-11-14T14:14:10.590Z,12.60
2018-11-14T14:16:39.220Z,12.50
2018-11-14T14:19:07.669Z,12.40
2018-11-14T14:21:35.904Z,12.30
2018-11-14T14:24:04.128Z,12.10
2018-11-14T14:26:32.361Z,12.00
2018-11-14T14:29:00.575Z,11.90
2018-11-14T14:31:29.172Z,11.80
2018-11-14T14:33:57.441Z,11.60
2018-11-14T14:36:25.711Z,11.50
2018-11-14T14:38:53.949Z,11.30
2018-11-14T14:41:22.238Z,11.10
2018-11-14T14:43:50.663Z,11.00
2018-11-14T14:46:18.898Z,10.80
2018-11-14T14:48:47.185Z,10.70
2018-11-14T14:51:15.387Z,10.50
2018-11-14T14:53:43.616Z,10.40
2018-11-14T14:56:11.962Z,10.20
2018-11-14T14:58:40.159Z,10.00
2018-11-14T15:01:08.408Z,9.90
2018-11-14T15:03:36.662Z,9.90
2018-11-14T15:06:05.050Z,9.70
2018-11-14T15:08:33.255Z,9.50
2018-11-14T15:11:01.503Z,9.30
2018-11-14T15:13:29.698Z,9.10
2018-11-14T15:15:58.652Z,9.00
2018-11-14T15:18:26.862Z,8.90
2018-11-14T15:20:55.126Z,8.70
2018-11-14T15:23:23.364Z,8.60
2018-11-14T15:25:51.593Z,8.60
2018-11-14T15:28:19.842Z,8.50
2018-11-14T15:30:48.067Z,8.30
2018-11-14T15:33:16.269Z,8.10
2018-11-14T15:35:44.487Z,8.00
2018-11-14T15:38:12.687Z,7.80
2018-11-14T15:40:40.911Z,7.70
2018-11-14T15:43:09.131Z,7.50
2018-11-14T15:45:37.399Z,7.40
2018-11-14T15:48:05.660Z,7.30
2018-11-14T15:50:33.872Z,7.10
2018-11-14T15:53:02.093Z,7.20
2018-11-14T15:55:30.345Z,7.20
2018-11-14T15:57:58.639Z,7.20
2018-11-14T16:00:27.975Z,7.10
2018-11-14T16:02:56.448Z,6.90
2018-11-14T16:05:25.751Z,6.80
2018-11-14T16:07:55.119Z,6.70
2018-11-14T16:10:24.232Z,6.60
2018-11-14T16:12:52.452Z,6.60
2018-11-14T16:15:22.098Z,6.60
2018-11-14T16:17:50.383Z,6.50
2018-11-14T16:20:19.983Z,6.50
2018-11-14T16:22:48.209Z,6.50
2018-11-14T16:25:17.608Z,6.40
2018-11-14T16:27:46.763Z,6.30
2018-11-14T16:30:17.375Z,6.30
2018-11-14T16:32:46.926Z,6.30
2018-11-14T16:35:15.175Z,6.20
2018-11-14T16:37:43.723Z,6.10
2018-11-14T16:40:17.002Z,6.00
2018-11-14T16:42:45.411Z,5.90
2018-11-14T16:45:14.400Z,5.90
2018-11-14T16:47:42.902Z,5.90
2018-11-14T16:50:12.544Z,6.00
2018-11-14T16:52:40.754Z,6.10
2018-11-14T16:55:10.075Z,6.10
2018-11-14T16:57:39.155Z,6.10
2018-11-14T17:00:12.059Z,6.10
2018-11-14T17:02:40.794Z,6.00
2018-11-14T17:05:09.132Z,6.10
2018-11-14T17:07:37.675Z,6.10
2018-11-14T17:10:07.498Z,6.10
2018-11-14T17:12:35.722Z,6.20
2018-11-14T17:15:04.395Z,6.20
2018-11-14T17:17:32.535Z,6.20
2018-11-14T17:20:00.779Z,6.20
2018-11-14T17:22:28.976Z,6.20
2018-11-14T17:24:57.215Z,6.20
2018-11-14T17:27:25.520Z,6.20
2018-11-14T17:29:53.803Z,6.20
2018-11-14T17:32:22.044Z,6.20
2018-11-14T17:34:50.352Z,6.10
2018-11-14T17:37:18.578Z,6.20
2018-11-14T17:39:46.803Z,6.10
2018-11-14T17:42:15.071Z,6.00
2018-11-14T17:44:43.317Z,6.00
2018-11-14T17:47:11.632Z,6.00
2018-11-14T17:49:39.967Z,6.00
2018-11-14T17:52:08.213Z,6.10
2018-11-14T17:54:36.451Z,6.10
2018-11-14T17:57:04.828Z,6.10
2018-11-14T17:59:33.035Z,6.10
2018-11-14T18:02:01.250Z,6.10
2018-11-14T18:04:29.456Z,6.20
2018-11-14T18:06:57.731Z,6.20
2018-11-14T18:09:25.935Z,6.20
2018-11-14T18:11:54.183Z,6.10
2018-11-14T18:14:22.421Z,6.20
2018-11-14T18:16:50.665Z,6.20
2018-11-14T18:19:18.880Z,6.20
2018-11-14T18:21:47.114Z,6.20
2018-11-14T18:24:15.315Z,6.10
2018-11-14T18:26:43.552Z,6.10
2018-11-14T18:29:11.787Z,6.10
2018-11-14T18:31:40.096Z,6.10
2018-11-14T18:34:08.315Z,6.10
2018-11-14T18:36:36.521Z,6.00
2018-11-14T18:39:08.456Z,6.00
2018-11-14T18:41:36.700Z,6.00
2018-11-14T18:44:05.188Z,6.00
2018-11-14T18:46:33.461Z,6.00
2018-11-14T18:49:01.688Z,5.90
2018-11-14T18:51:29.931Z,6.00
2018-11-14T18:53:58.176Z,6.00
2018-11-14T18:56:26.406Z,6.00
2018-11-14T18:58:54.634Z,6.00
2018-11-14T19:01:22.894Z,5.90
2018-11-14T19:03:51.125Z,6.00
2018-11-14T19:06:19.468Z,6.00
2018-11-14T19:08:48.388Z,6.00
2018-11-14T19:11:16.653Z,5.80
2018-11-14T19:13:44.892Z,5.70
2018-11-14T19:16:13.109Z,5.60
2018-11-14T19:18:41.421Z,5.60
2018-11-14T19:21:09.578Z,5.50
2018-11-14T19:23:37.832Z,5.50
2018-11-14T19:26:06.408Z,5.50
2018-11-14T19:28:34.714Z,5.50
2018-11-14T19:31:02.928Z,5.50
2018-11-14T19:33:31.132Z,5.40
2018-11-14T19:35:59.357Z,5.40
2018-11-14T19:38:27.595Z,5.50
2018-11-14T19:40:55.868Z,5.50
2018-11-14T19:43:24.053Z,5.50
2018-11-14T19:45:52.355Z,5.60
2018-11-14T19:48:20.568Z,5.60
2018-11-14T19:50:48.801Z,5.70
2018-11-14T19:53:17.025Z,5.80
2018-11-14T19:55:45.398Z,5.90
2018-11-14T19:58:13.560Z,5.90
2018-11-14T20:00:41.803Z,6.00
2018-11-14T20:03:10.203Z,5.90
2018-11-14T20:05:38.430Z,5.90
2018-11-14T20:08:06.717Z,5.90
2018-11-14T20:10:35.212Z,5.90
2018-11-14T20:13:03.433Z,5.90
2018-11-14T20:15:33.955Z,5.90
2018-11-14T20:18:02.203Z,5.90
2018-11-14T20:20:31.923Z,5.80
2018-11-14T20:23:00.168Z,5.80
2018-11-14T20:25:28.482Z,5.70
2018-11-14T20:27:56.753Z,5.70
2018-11-14T20:30:26.395Z,5.60
2018-11-14T20:32:55.504Z,5.50
2018-11-14T20:35:24.574Z,5.60
2018-11-14T20:37:52.831Z,5.50
2018-11-14T20:40:21.711Z,5.50
2018-11-14T20:42:50.802Z,5.60
2018-11-14T20:45:23.284Z,5.60
2018-11-14T20:47:51.515Z,5.60
2018-11-14T20:50:20.844Z,5.60
2018-11-14T20:52:50.644Z,5.60
2018-11-14T20:55:18.881Z,5.50
2018-11-14T20:57:47.106Z,5.50
2018-11-14T21:00:22.315Z,5.50
2018-11-14T21:02:51.025Z,5.40
2018-11-14T21:05:19.368Z,5.30
2018-11-14T21:07:47.631Z,5.20
2018-11-14T21:10:17.156Z,5.10
2018-11-14T21:12:45.762Z,5.00
2018-11-14T21:15:16.186Z,5.00
2018-11-14T21:17:44.470Z,4.90
2018-11-14T21:20:12.721Z,4.80
2018-11-14T21:22:41.643Z,4.80
2018-11-14T21:25:12.437Z,4.90
2018-11-14T21:27:41.580Z,5.00
2018-11-14T21:30:11.043Z,5.00
2018-11-14T21:32:39.843Z,5.10
2018-11-14T21:35:10.859Z,5.20
2018-11-14T21:37:39.073Z,5.10
2018-11-14T21:40:08.355Z,5.10
2018-11-14T21:42:36.683Z,5.10
2018-11-14T21:45:05.272Z,5.10
2018-11-14T21:47:34.462Z,5.10
2018-11-14T21:50:03.007Z,5.10
2018-11-14T21:52:31.203Z,5.10
2018-11-14T21:54:59.436Z,5.10
2018-11-14T21:57:27.666Z,5.10
2018-11-14T21:59:55.943Z,5.00
2018-11-14T22:02:24.175Z,5.00
2018-11-14T22:04:52.410Z,5.00
2018-11-14T22:07:20.613Z,4.90
2018-11-14T22:09:48.839Z,4.90
2018-11-14T22:12:17.050Z,4.80
2018-11-14T22:14:45.289Z,4.90
2018-11-14T22:17:13.517Z,4.80
2018-11-14T22:19:41.828Z,4.80
2018-11-14T22:22:10.036Z,4.80
2018-11-14T22:24:38.258Z,4.80
2018-11-14T22:27:06.490Z,4.80
2018-11-14T22:29:34.706Z,4.80
2018-11-14T22:32:02.912Z,4.80
2018-11-14T22:34:31.169Z,4.80
2018-11-14T22:36:59.371Z,4.80
2018-11-14T22:39:27.629Z,4.90
2018-11-14T22:41:55.853Z,4.80
2018-11-14T22:44:24.060Z,4.80
2018-11-14T22:46:52.285Z,4.80
2018-11-14T22:49:20.521Z,4.80
2018-11-14T22:51:48.740Z,4.80
2018-11-14T22:54:17.001Z,4.80
2018-11-14T22:56:45.203Z,4.80
2018-11-14T22:59:13.449Z,4.80
2018-11-14T23:01:41.651Z,4.80
2018-11-14T23:04:09.892Z,4.90
2018-11-14T23:06:38.153Z,4.70
2018-11-14T23:09:09.327Z,4.60
2018-11-14T23:11:37.572Z,4.60
2018-11-14T23:14:06.004Z,4.60
2018-11-14T23:16:34.271Z,4.50
2018-11-14T23:19:02.515Z,4.50
2018-11-14T23:21:30.860Z,4.50
2018-11-14T23:23:59.543Z,4.50
2018-11-14T23:26:27.765Z,4.50
2018-11-14T23:28:55.962Z,4.40
2018-11-14T23:31:24.176Z,4.40
2018-11-14T23:33:52.411Z,4.30
2018-11-14T23:36:20.654Z,4.30
2018-11-14T23:38:48.852Z,4.20
2018-11-14T23:41:17.113Z,4.20
2018-11-14T23:43:45.349Z,4.10
2018-11-14T23:46:13.581Z,4.00
2018-11-14T23:48:41.779Z,4.00
2018-11-14T23:51:10.004Z,4.00
2018-11-14T23:53:38.208Z,4.00
2018-11-14T23:56:06.435Z,4.00
2018-11-14T23:58:34.642Z,4.00
